createdAt,value
2018-09-30T00:00:54.858Z,10.70
2018-09-30T00:03:24.748Z,10.60
2018-09-30T00:05:53.932Z,10.60
2018-09-30T00:08:23.161Z,10.60
2018-09-30T00:10:52.355Z,10.50
2018-09-30T00:13:22.172Z,10.40
2018-09-30T00:15:51.349Z,10.30
2018-09-30T00:18:21.215Z,10.30
2018-09-30T00:20:50.541Z,10.20
2018-09-30T00:23:19.728Z,10.10
2018-09-30T00:26:56.652Z,10.20
2018-09-30T00:29:26.748Z,10.20
2018-09-30T00:31:56.240Z,10.10
2018-09-30T00:34:29.368Z,10.10
2018-09-30T00:36:59.573Z,10.10
2018-09-30T00:39:28.831Z,10.10
2018-09-30T00:41:58.167Z,10.10
2018-09-30T00:44:27.355Z,10.10
2018-09-30T00:46:56.951Z,10.00
2018-09-30T00:49:26.196Z,10.00
2018-09-30T00:51:55.381Z,9.90
2018-09-30T00:54:24.546Z,10.00
2018-09-30T00:56:53.776Z,9.90
2018-09-30T00:59:23.009Z,9.90
2018-09-30T01:01:52.161Z,9.80
2018-09-30T01:04:21.691Z,9.80
2018-09-30T01:06:50.863Z,9.80
2018-09-30T01:09:20.050Z,9.90
2018-09-30T01:11:49.271Z,9.80
2018-09-30T01:14:18.440Z,9.70
2018-09-30T01:16:47.640Z,9.60
2018-09-30T01:19:17.291Z,9.50
2018-09-30T01:21:46.471Z,9.40
2018-09-30T01:24:15.672Z,9.40
2018-09-30T01:26:45.399Z,9.50
2018-09-30T01:29:14.575Z,9.40
2018-09-30T01:31:43.772Z,9.40
2018-09-30T01:34:12.998Z,9.40
2018-09-30T01:36:42.175Z,9.40
2018-09-30T01:39:11.370Z,9.40
2018-09-30T01:41:40.584Z,9.40
2018-09-30T01:44:09.778Z,9.50
2018-09-30T01:46:39.484Z,9.50
2018-09-30T01:49:09.108Z,9.40
2018-09-30T01:51:38.288Z,9.30
2018-09-30T01:54:07.522Z,9.20
2018-09-30T01:56:36.728Z,9.20
2018-09-30T01:59:06.079Z,9.10
2018-09-30T02:01:35.243Z,9.10
2018-09-30T02:04:04.455Z,9.10
2018-09-30T02:06:33.631Z,9.10
2018-09-30T02:09:02.944Z,9.10
2018-09-30T02:11:32.503Z,9.10
2018-09-30T02:14:01.708Z,9.10
2018-09-30T02:16:30.883Z,9.20
2018-09-30T02:19:00.095Z,9.20
2018-09-30T02:21:29.776Z,9.10
2018-09-30T02:23:58.943Z,9.00
2018-09-30T02:26:28.148Z,8.90
2018-09-30T02:28:57.310Z,8.90
2018-09-30T02:31:26.492Z,8.80
2018-09-30T02:33:55.912Z,8.80
2018-09-30T02:36:25.093Z,8.70
2018-09-30T02:38:54.268Z,8.70
2018-09-30T02:41:23.472Z,8.60
2018-09-30T02:43:52.665Z,8.60
2018-09-30T02:46:22.135Z,8.60
2018-09-30T02:48:51.336Z,8.40
2018-09-30T02:51:20.536Z,8.30
2018-09-30T02:53:49.753Z,8.30
2018-09-30T02:56:19.307Z,8.20
2018-09-30T02:58:48.572Z,8.20
2018-09-30T03:01:17.756Z,8.20
2018-09-30T03:03:46.968Z,8.10
2018-09-30T03:08:28.929Z,8.10
2018-09-30T03:10:58.179Z,8.00
2018-09-30T03:13:27.381Z,8.10
2018-09-30T03:15:56.544Z,8.10
2018-09-30T03:18:26.735Z,8.10
2018-09-30T03:20:55.907Z,8.10
2018-09-30T03:23:25.400Z,8.10
2018-09-30T03:25:54.603Z,8.00
2018-09-30T03:28:23.765Z,8.00
2018-09-30T03:30:52.942Z,8.00
2018-09-30T03:33:22.163Z,8.10
2018-09-30T03:35:51.359Z,8.10
2018-09-30T03:38:20.545Z,8.10
2018-09-30T03:40:49.971Z,8.10
2018-09-30T03:43:19.141Z,8.00
2018-09-30T03:45:48.311Z,8.00
2018-09-30T03:48:17.536Z,8.00
2018-09-30T03:50:46.719Z,8.10
2018-09-30T03:53:16.332Z,8.00
2018-09-30T03:55:45.620Z,8.00
2018-09-30T03:58:14.796Z,7.90
2018-09-30T04:00:43.971Z,8.10
2018-09-30T04:03:13.230Z,8.10
2018-09-30T04:05:42.416Z,7.90
2018-09-30T04:08:11.588Z,7.80
2018-09-30T04:10:40.806Z,7.80
2018-09-30T04:13:09.990Z,7.70
2018-09-30T04:15:39.275Z,7.70
2018-09-30T04:18:08.795Z,7.80
2018-09-30T04:20:38.017Z,7.70
2018-09-30T04:23:07.211Z,7.70
2018-09-30T04:25:37.248Z,7.70
2018-09-30T04:28:06.423Z,7.60
2018-09-30T04:30:35.628Z,7.50
2018-09-30T04:33:04.971Z,7.50
2018-09-30T04:35:34.124Z,7.50
2018-09-30T04:38:03.304Z,7.40
2018-09-30T04:40:32.515Z,7.30
2018-09-30T04:43:01.688Z,7.30
2018-09-30T04:45:30.863Z,7.20
2018-09-30T04:48:00.340Z,7.10
2018-09-30T04:50:29.499Z,7.10
2018-09-30T04:52:58.679Z,7.00
2018-09-30T04:55:28.000Z,6.90
2018-09-30T04:57:57.164Z,6.90
2018-09-30T05:00:26.352Z,7.00
2018-09-30T05:02:55.532Z,7.00
2018-09-30T05:05:24.712Z,7.00
2018-09-30T05:07:53.879Z,7.20
2018-09-30T05:10:23.453Z,7.20
2018-09-30T05:12:52.671Z,7.10
2018-09-30T05:15:21.859Z,7.10
2018-09-30T05:17:51.081Z,7.10
2018-09-30T05:20:20.292Z,7.10
2018-09-30T05:22:49.460Z,7.00
2018-09-30T05:25:18.655Z,7.00
2018-09-30T05:27:48.308Z,7.00
2018-09-30T05:30:17.476Z,7.10
2018-09-30T05:32:47.145Z,7.00
2018-09-30T05:35:16.319Z,6.90
2018-09-30T05:37:45.503Z,6.80
2018-09-30T05:40:14.734Z,6.80
2018-09-30T05:42:43.895Z,6.80
2018-09-30T05:45:13.152Z,6.90
2018-09-30T05:47:42.352Z,7.20
2018-09-30T05:50:11.530Z,7.10
2018-09-30T05:52:40.692Z,6.90
2018-09-30T05:55:10.239Z,6.80
2018-09-30T05:57:39.592Z,6.80
2018-09-30T06:00:08.754Z,6.80
2018-09-30T06:02:37.935Z,6.80
2018-09-30T06:05:07.133Z,6.80
2018-09-30T06:07:36.312Z,7.10
2018-09-30T06:10:05.595Z,7.00
2018-09-30T06:12:34.771Z,7.00
2018-09-30T06:15:04.003Z,7.00
2018-09-30T06:17:33.637Z,7.10
2018-09-30T06:20:02.799Z,7.10
2018-09-30T06:22:32.036Z,7.10
2018-09-30T06:25:01.232Z,7.20
2018-09-30T06:27:30.395Z,7.20
2018-09-30T06:29:59.899Z,7.20
2018-09-30T06:32:29.100Z,7.30
2018-09-30T06:34:58.273Z,7.40
2018-09-30T06:37:27.454Z,7.40
2018-09-30T06:39:57.037Z,7.40
2018-09-30T06:42:26.219Z,7.50
2018-09-30T06:44:55.450Z,7.50
2018-09-30T06:47:24.635Z,7.60
2018-09-30T06:49:53.823Z,7.60
2018-09-30T06:52:23.215Z,7.60
2018-09-30T06:54:52.472Z,7.70
2018-09-30T06:57:21.635Z,7.70
2018-09-30T06:59:50.810Z,7.80
2018-09-30T07:02:20.133Z,7.80
2018-09-30T07:04:49.339Z,7.80
2018-09-30T07:07:18.475Z,7.80
2018-09-30T07:09:47.655Z,7.80
2018-09-30T07:12:16.863Z,7.80
2018-09-30T07:14:46.048Z,7.90
2018-09-30T07:17:15.252Z,8.00
2018-09-30T07:19:44.446Z,8.00
2018-09-30T07:22:13.690Z,8.10
2018-09-30T07:24:42.899Z,8.20
2018-09-30T07:27:12.064Z,8.40
2018-09-30T07:29:41.240Z,8.50
2018-09-30T07:32:10.907Z,8.60
2018-09-30T07:34:40.142Z,8.50
2018-09-30T07:37:09.547Z,8.50
2018-09-30T07:39:38.712Z,8.50
2018-09-30T07:42:07.922Z,8.50
2018-09-30T07:44:37.092Z,8.60
2018-09-30T07:47:06.487Z,8.60
2018-09-30T07:49:35.700Z,8.70
2018-09-30T07:52:05.091Z,8.80
2018-09-30T07:54:34.292Z,8.90
2018-09-30T07:57:03.467Z,9.00
2018-09-30T07:59:32.650Z,9.20
2018-09-30T08:02:01.848Z,9.30
2018-09-30T08:04:31.048Z,9.30
2018-09-30T08:07:00.228Z,9.30
2018-09-30T08:09:29.944Z,9.30
2018-09-30T08:11:59.116Z,9.40
2018-09-30T08:14:28.641Z,9.50
2018-09-30T08:16:57.952Z,9.50
2018-09-30T08:19:27.056Z,9.60
2018-09-30T08:21:56.225Z,9.60
2018-09-30T08:24:25.642Z,9.70
2018-09-30T08:26:55.012Z,9.80
2018-09-30T08:29:24.185Z,10.00
2018-09-30T08:31:53.752Z,10.00
2018-09-30T08:34:23.516Z,10.10
2018-09-30T08:36:52.752Z,10.10
2018-09-30T08:39:21.987Z,10.20
2018-09-30T08:41:51.173Z,10.30
2018-09-30T08:44:20.422Z,10.40
2018-09-30T08:46:49.640Z,10.50
2018-09-30T08:49:18.772Z,10.50
2018-09-30T08:51:47.947Z,10.60
2018-09-30T08:54:17.449Z,10.60
2018-09-30T08:56:46.640Z,10.70
2018-09-30T08:59:15.816Z,10.80
2018-09-30T09:01:45.015Z,10.90
2018-09-30T09:04:14.204Z,11.00
2018-09-30T09:06:43.371Z,11.10
2018-09-30T09:09:13.539Z,11.20
2018-09-30T09:11:42.720Z,11.30
2018-09-30T09:14:11.919Z,11.30
2018-09-30T09:16:41.455Z,11.40
2018-09-30T09:19:10.656Z,11.40
2018-09-30T09:21:39.815Z,11.50
2018-09-30T09:24:09.164Z,11.60
2018-09-30T09:26:38.340Z,11.60
2018-09-30T09:29:07.723Z,11.60
2018-09-30T09:31:37.033Z,11.70
2018-09-30T09:34:06.235Z,11.70
2018-09-30T09:36:35.944Z,11.80
2018-09-30T09:39:08.529Z,11.90
2018-09-30T09:41:38.132Z,11.90
2018-09-30T09:44:08.136Z,12.00
2018-09-30T09:46:37.360Z,12.00
2018-09-30T09:49:06.567Z,12.20
2018-09-30T09:51:35.763Z,12.30
2018-09-30T09:54:05.002Z,12.50
2018-09-30T09:56:34.240Z,12.70
2018-09-30T09:59:03.444Z,13.20
2018-09-30T10:01:32.720Z,14.20
2018-09-30T10:04:01.907Z,15.50
2018-09-30T10:06:31.112Z,16.60
2018-09-30T10:09:00.663Z,17.50
2018-09-30T10:11:30.039Z,18.10
2018-09-30T10:13:59.212Z,18.60
2018-09-30T10:16:28.411Z,19.00
2018-09-30T10:18:57.583Z,19.30
2018-09-30T10:21:26.772Z,19.80
2018-09-30T10:23:56.044Z,20.20
2018-09-30T10:26:25.263Z,20.50
2018-09-30T10:28:54.443Z,20.60
2018-09-30T10:31:24.470Z,20.20
2018-09-30T10:33:53.675Z,20.10
2018-09-30T10:36:22.872Z,20.70
2018-09-30T10:38:52.784Z,21.40
2018-09-30T10:41:21.987Z,22.10
2018-09-30T10:43:51.180Z,22.60
2018-09-30T10:46:20.476Z,22.90
2018-09-30T10:48:49.668Z,23.20
2018-09-30T10:51:18.971Z,23.40
2018-09-30T10:53:48.924Z,23.30
2018-09-30T10:56:18.071Z,23.60
2018-09-30T10:58:47.243Z,24.10
2018-09-30T11:01:16.459Z,24.50
2018-09-30T11:03:45.752Z,24.90
2018-09-30T11:06:14.948Z,25.30
2018-09-30T11:08:44.603Z,25.30
2018-09-30T11:11:13.897Z,25.60
2018-09-30T11:13:43.088Z,25.80
2018-09-30T11:16:12.609Z,26.00
2018-09-30T11:18:43.224Z,26.40
2018-09-30T11:21:12.672Z,26.50
2018-09-30T11:23:41.891Z,26.50
2018-09-30T11:26:11.143Z,26.40
2018-09-30T11:28:40.375Z,26.60
2018-09-30T11:31:09.954Z,27.10
2018-09-30T11:33:39.190Z,27.20
2018-09-30T11:36:08.418Z,27.60
2018-09-30T11:38:38.492Z,27.90
2018-09-30T11:41:07.699Z,28.00
2018-09-30T11:43:38.279Z,28.00
2018-09-30T11:46:07.804Z,28.20
2018-09-30T11:48:36.969Z,28.40
2018-09-30T11:51:06.455Z,28.70
2018-09-30T11:53:35.841Z,28.80
2018-09-30T11:56:05.071Z,29.10
2018-09-30T11:58:34.506Z,29.60
2018-09-30T12:01:03.731Z,30.00
2018-09-30T12:03:32.912Z,30.10
2018-09-30T12:06:02.259Z,30.00
2018-09-30T12:08:31.500Z,30.00
2018-09-30T12:11:00.822Z,30.10
2018-09-30T12:13:29.999Z,30.40
2018-09-30T12:15:59.482Z,30.90
2018-09-30T12:18:28.763Z,31.20
2018-09-30T12:20:57.947Z,31.60
2018-09-30T12:23:27.176Z,31.90
2018-09-30T12:25:56.756Z,32.20
2018-09-30T12:28:25.823Z,32.40
2018-09-30T12:30:55.284Z,32.30
2018-09-30T12:33:24.476Z,32.50
2018-09-30T12:35:53.665Z,31.70
2018-09-30T12:38:22.985Z,31.40
2018-09-30T12:40:52.391Z,31.40
2018-09-30T12:43:21.584Z,31.50
2018-09-30T12:45:52.032Z,31.80
2018-09-30T12:48:21.232Z,32.10
2018-09-30T12:50:50.443Z,32.30
2018-09-30T12:53:19.747Z,32.60
2018-09-30T12:55:49.215Z,33.10
2018-09-30T12:58:19.484Z,33.40
2018-09-30T13:00:49.044Z,33.50
2018-09-30T13:03:20.292Z,33.40
2018-09-30T13:05:49.812Z,33.40
2018-09-30T13:08:21.596Z,33.40
2018-09-30T13:10:50.809Z,33.40
2018-09-30T13:13:20.160Z,33.50
2018-09-30T13:15:49.824Z,33.70
2018-09-30T13:18:20.458Z,34.00
2018-09-30T13:20:50.210Z,34.30
2018-09-30T13:23:19.502Z,34.40
2018-09-30T13:25:48.791Z,34.40
2018-09-30T13:28:18.481Z,34.30
2018-09-30T13:30:48.932Z,34.20
2018-09-30T13:33:18.261Z,34.50
2018-09-30T13:35:47.492Z,34.50
2018-09-30T13:38:16.708Z,34.60
2018-09-30T13:40:46.110Z,34.90
2018-09-30T13:43:15.297Z,35.20
2018-09-30T13:45:44.541Z,35.60
2018-09-30T13:48:13.775Z,36.10
2018-09-30T13:50:43.051Z,36.40
2018-09-30T13:53:12.356Z,36.30
2018-09-30T13:55:41.568Z,36.30
2018-09-30T13:58:15.006Z,36.40
2018-09-30T14:00:44.235Z,36.70
2018-09-30T14:03:13.491Z,36.80
2018-09-30T14:05:43.411Z,37.00
2018-09-30T14:08:12.802Z,36.90
2018-09-30T14:10:42.133Z,36.50
2018-09-30T14:13:11.465Z,36.60
2018-09-30T14:15:40.671Z,36.70
2018-09-30T14:18:11.416Z,36.80
2018-09-30T14:20:40.832Z,36.80
2018-09-30T14:23:10.355Z,36.90
2018-09-30T14:25:39.759Z,37.00
2018-09-30T14:28:09.284Z,37.00
2018-09-30T14:30:38.644Z,36.40
2018-09-30T14:33:07.904Z,36.00
2018-09-30T14:35:37.103Z,36.00
2018-09-30T14:38:06.670Z,36.40
2018-09-30T14:40:35.904Z,36.80
2018-09-30T14:43:05.526Z,36.60
2018-09-30T14:45:34.728Z,36.40
2018-09-30T14:48:03.946Z,36.70
2018-09-30T14:50:33.453Z,36.80
2018-09-30T14:53:02.596Z,37.00
2018-09-30T14:55:32.171Z,37.20
2018-09-30T14:58:01.544Z,37.40
2018-09-30T15:00:30.795Z,37.30
2018-09-30T15:03:00.152Z,37.10
2018-09-30T15:05:29.351Z,37.30
2018-09-30T15:07:58.754Z,37.50
2018-09-30T15:10:28.118Z,37.50
2018-09-30T15:12:57.604Z,37.50
2018-09-30T15:15:27.035Z,37.30
2018-09-30T15:17:56.204Z,36.70
2018-09-30T15:20:25.504Z,36.10
2018-09-30T15:22:54.863Z,36.00
2018-09-30T15:25:24.155Z,35.80
2018-09-30T15:27:53.773Z,35.80
2018-09-30T15:30:25.479Z,35.50
2018-09-30T15:32:55.097Z,35.40
2018-09-30T15:35:24.462Z,35.40
2018-09-30T15:37:53.731Z,35.50
2018-09-30T15:40:23.072Z,35.30
2018-09-30T15:42:52.348Z,35.10
2018-09-30T15:45:21.572Z,35.00
2018-09-30T15:47:50.975Z,35.00
2018-09-30T15:50:22.399Z,34.80
2018-09-30T15:52:51.624Z,33.60
2018-09-30T15:55:20.900Z,32.10
2018-09-30T15:57:50.064Z,30.80
2018-09-30T16:00:19.311Z,29.80
2018-09-30T16:02:49.836Z,29.00
2018-09-30T16:05:19.051Z,28.40
2018-09-30T16:07:48.217Z,28.00
2018-09-30T16:10:17.507Z,27.60
2018-09-30T16:12:46.724Z,27.30
2018-09-30T16:15:16.017Z,27.00
2018-09-30T16:17:45.596Z,26.60
2018-09-30T16:20:15.025Z,26.30
2018-09-30T16:22:44.330Z,26.00
2018-09-30T16:25:13.903Z,25.70
2018-09-30T16:27:44.365Z,25.60
2018-09-30T16:30:13.608Z,25.30
2018-09-30T16:32:42.856Z,25.10
2018-09-30T16:35:12.076Z,24.90
2018-09-30T16:37:41.589Z,24.80
2018-09-30T16:40:11.114Z,24.70
2018-09-30T16:42:41.368Z,24.40
2018-09-30T16:45:11.032Z,24.30
2018-09-30T16:47:41.567Z,24.30
2018-09-30T16:50:10.824Z,24.20
2018-09-30T16:52:40.040Z,24.00
2018-09-30T16:55:09.411Z,23.80
2018-09-30T16:57:38.799Z,23.60
2018-09-30T17:00:09.079Z,23.40
2018-09-30T17:02:38.663Z,23.20
2018-09-30T17:05:07.904Z,23.10
2018-09-30T17:07:37.240Z,23.00
2018-09-30T17:10:06.498Z,22.80
2018-09-30T17:12:35.788Z,22.60
2018-09-30T17:15:06.630Z,22.40
2018-09-30T17:17:35.904Z,22.30
2018-09-30T17:20:05.324Z,22.20
2018-09-30T17:22:34.801Z,22.10
2018-09-30T17:25:04.363Z,22.10
2018-09-30T17:27:33.844Z,22.00
2018-09-30T17:30:03.611Z,21.90
2018-09-30T17:32:33.974Z,21.80
2018-09-30T17:35:04.275Z,21.70
2018-09-30T17:37:33.684Z,21.60
2018-09-30T17:40:07.707Z,21.40
2018-09-30T17:42:41.829Z,21.30
2018-09-30T17:45:15.737Z,21.20
2018-09-30T17:47:44.963Z,21.10
2018-09-30T17:50:14.481Z,20.90
2018-09-30T17:52:50.384Z,20.80
2018-09-30T17:55:20.289Z,20.60
2018-09-30T17:57:49.550Z,20.50
2018-09-30T18:00:19.299Z,20.40
2018-09-30T18:02:49.047Z,20.20
2018-09-30T18:05:18.373Z,20.10
2018-09-30T18:07:47.573Z,20.10
2018-09-30T18:10:16.787Z,20.00
2018-09-30T18:12:45.988Z,19.90
2018-09-30T18:15:15.219Z,19.70
2018-09-30T18:17:44.408Z,19.60
2018-09-30T18:20:13.672Z,19.50
2018-09-30T18:22:42.953Z,19.30
2018-09-30T18:25:12.160Z,19.20
2018-09-30T18:27:41.338Z,19.20
2018-09-30T18:30:10.962Z,19.10
2018-09-30T18:32:40.173Z,19.10
2018-09-30T18:35:09.444Z,19.10
2018-09-30T18:37:38.688Z,19.00
2018-09-30T18:40:07.943Z,19.00
2018-09-30T18:42:37.069Z,19.00
2018-09-30T18:45:06.564Z,19.00
2018-09-30T18:47:35.747Z,18.90
2018-09-30T18:50:05.193Z,18.70
2018-09-30T18:52:34.400Z,18.70
2018-09-30T18:55:03.607Z,18.60
2018-09-30T18:57:32.806Z,18.50
2018-09-30T19:00:02.116Z,18.40
2018-09-30T19:02:31.340Z,18.20
2018-09-30T19:05:00.606Z,18.00
2018-09-30T19:07:30.047Z,17.90
2018-09-30T19:09:59.315Z,17.90
2018-09-30T19:12:28.677Z,17.80
2018-09-30T19:14:57.997Z,17.80
2018-09-30T19:17:27.087Z,17.70
2018-09-30T19:19:56.269Z,17.60
2018-09-30T19:22:25.891Z,17.50
2018-09-30T19:24:56.379Z,17.40
2018-09-30T19:27:25.550Z,17.40
2018-09-30T19:29:55.857Z,17.30
2018-09-30T19:32:25.239Z,17.20
2018-09-30T19:34:54.492Z,17.10
2018-09-30T19:37:23.817Z,17.10
2018-09-30T19:39:52.999Z,17.10
2018-09-30T19:42:22.226Z,17.00
2018-09-30T19:44:51.452Z,16.90
2018-09-30T19:47:21.300Z,16.90
2018-09-30T19:49:50.495Z,16.80
2018-09-30T19:52:19.903Z,16.80
2018-09-30T19:54:49.125Z,16.70
2018-09-30T19:57:18.316Z,16.80
2018-09-30T19:59:47.579Z,16.80
2018-09-30T20:02:16.808Z,16.80
2018-09-30T20:04:46.435Z,16.70
2018-09-30T20:07:15.695Z,16.50
2018-09-30T20:09:44.866Z,16.40
2018-09-30T20:12:14.053Z,16.20
2018-09-30T20:14:44.777Z,16.00
2018-09-30T20:17:14.123Z,16.00
2018-09-30T20:19:47.448Z,16.00
2018-09-30T20:22:17.924Z,16.00
2018-09-30T20:24:47.154Z,16.00
2018-09-30T20:27:16.359Z,15.90
2018-09-30T20:29:45.809Z,15.90
2018-09-30T20:32:14.992Z,15.90
2018-09-30T20:34:44.636Z,15.90
2018-09-30T20:37:13.865Z,15.90
2018-09-30T20:39:42.987Z,15.80
2018-09-30T20:42:12.236Z,15.80
2018-09-30T20:44:41.415Z,15.80
2018-09-30T20:47:10.717Z,15.80
2018-09-30T20:49:40.321Z,15.80
2018-09-30T20:52:09.516Z,15.90
2018-09-30T20:54:38.687Z,16.00
2018-09-30T20:57:08.250Z,16.00
2018-09-30T20:59:37.428Z,16.00
2018-09-30T21:02:06.939Z,15.90
2018-09-30T21:04:36.150Z,15.80
2018-09-30T21:07:05.362Z,15.80
2018-09-30T21:09:34.619Z,15.80
2018-09-30T21:12:04.220Z,15.70
2018-09-30T21:14:33.415Z,15.70
2018-09-30T21:17:02.616Z,15.60
2018-09-30T21:19:32.126Z,15.60
2018-09-30T21:22:01.311Z,15.60
2018-09-30T21:24:30.485Z,15.60
2018-09-30T21:26:59.696Z,15.40
2018-09-30T21:29:28.883Z,15.20
2018-09-30T21:31:58.067Z,15.30
2018-09-30T21:34:27.312Z,15.30
2018-09-30T21:36:56.507Z,15.50
2018-09-30T21:39:25.684Z,15.50
2018-09-30T21:41:55.211Z,15.50
2018-09-30T21:44:24.380Z,15.60
2018-09-30T21:46:53.571Z,15.60
2018-09-30T21:49:22.771Z,15.60
2018-09-30T21:51:52.752Z,15.60
2018-09-30T21:54:21.944Z,15.50
2018-09-30T21:56:51.319Z,15.30
2018-09-30T21:59:20.507Z,15.20
2018-09-30T22:01:49.768Z,15.20
2018-09-30T22:04:19.120Z,15.20
2018-09-30T22:06:48.360Z,15.10
2018-09-30T22:09:17.531Z,15.00
2018-09-30T22:11:46.726Z,15.00
2018-09-30T22:14:16.046Z,15.20
2018-09-30T22:16:45.232Z,15.30
2018-09-30T22:19:14.572Z,15.40
2018-09-30T22:21:43.964Z,15.40
2018-09-30T22:24:13.160Z,15.50
2018-09-30T22:26:42.418Z,15.50
2018-09-30T22:29:11.613Z,15.30
2018-09-30T22:31:40.794Z,15.30
2018-09-30T22:34:10.010Z,15.30
2018-09-30T22:36:39.203Z,15.30
2018-09-30T22:39:09.105Z,15.40
2018-09-30T22:41:38.504Z,15.40
2018-09-30T22:44:07.797Z,15.40
2018-09-30T22:46:36.980Z,15.50
2018-09-30T22:49:06.288Z,15.30
2018-09-30T22:51:35.490Z,15.20
2018-09-30T22:54:05.371Z,15.30
2018-09-30T22:56:34.571Z,15.30
2018-09-30T22:59:03.791Z,15.30
2018-09-30T23:01:32.977Z,15.30
2018-09-30T23:04:02.511Z,15.30
2018-09-30T23:06:31.751Z,15.30
2018-09-30T23:09:00.940Z,15.40
2018-09-30T23:11:30.352Z,15.40
2018-09-30T23:13:59.539Z,15.30
2018-09-30T23:16:28.720Z,15.30
2018-09-30T23:18:57.927Z,15.20
2018-09-30T23:21:27.111Z,15.20
2018-09-30T23:23:56.284Z,15.10
2018-09-30T23:26:25.479Z,15.10
2018-09-30T23:28:54.664Z,15.20
2018-09-30T23:31:23.844Z,15.30
2018-09-30T23:33:53.400Z,15.40
2018-09-30T23:36:22.597Z,15.40
2018-09-30T23:38:51.763Z,15.40
2018-09-30T23:41:20.959Z,15.40
2018-09-30T23:43:50.136Z,15.40
2018-09-30T23:46:19.311Z,15.40
2018-09-30T23:48:48.507Z,15.30
2018-09-30T23:51:17.692Z,15.20
2018-09-30T23:53:46.884Z,15.10
2018-09-30T23:56:16.667Z,15.10
2018-09-30T23:58:45.861Z,15.00
